Time;durP1;ratioP1;P1;durP2;ratioP2;P2;SDS_P1;SDS_P2;PMS_P1;PMS_P2;Temp;Humidity;BMP_temperature;BMP_pressure;BME280_temperature;BME280_humidity;BME280_pressure;Samples;Min_cycle;Max_cycle;Signal;HPM_P1;HPM_P2
2023/01/14 00:01:18;;;;;;;29.92;10.60;;;5.90;99.90;;;;;;5007738;28;20398;-74
2023/01/14 00:03:46;;;;;;;31.77;11.57;;;5.90;99.90;;;;;;4985284;28;20057;-74
2023/01/14 00:06:16;;;;;;;23.25;9.70;;;5.80;99.90;;;;;;5000480;28;20045;-74
2023/01/14 00:08:44;;;;;;;34.58;9.63;;;5.80;99.90;;;;;;5005412;28;20072;-74
2023/01/14 00:11:13;;;;;;;34.95;11.25;;;5.80;99.90;;;;;;5008124;28;20038;-74
2023/01/14 00:13:40;;;;;;;32.45;10.30;;;5.80;99.90;;;;;;5005089;28;20064;-74
2023/01/14 00:16:12;;;;;;;25.55;9.43;;;5.80;99.90;;;;;;5006222;28;20069;-74
2023/01/14 00:18:39;;;;;;;39.97;11.52;;;5.80;99.90;;;;;;4994775;28;20080;-74
2023/01/14 00:21:14;;;;;;;25.45;8.60;;;5.80;99.90;;;;;;5006507;28;20341;-73
2023/01/14 00:23:41;;;;;;;34.70;11.07;;;5.80;99.90;;;;;;5007166;28;21189;-73
2023/01/14 00:26:13;;;;;;;27.30;8.65;;;5.80;99.90;;;;;;4992498;28;20047;-73
2023/01/14 00:28:41;;;;;;;25.92;7.35;;;5.80;99.90;;;;;;5008194;28;21242;-74
2023/01/14 00:31:11;;;;;;;37.45;9.85;;;5.90;99.90;;;;;;4998925;28;20049;-74
2023/01/14 00:33:39;;;;;;;28.00;10.32;;;6.00;99.90;;;;;;5006039;28;20049;-73
2023/01/14 00:36:08;;;;;;;18.95;6.50;;;5.90;99.90;;;;;;5007909;28;20069;-75
2023/01/14 00:38:36;;;;;;;12.60;6.65;;;5.20;99.90;;;;;;5009456;28;20111;-75
2023/01/14 00:41:12;;;;;;;16.63;6.43;;;4.90;99.90;;;;;;5009603;28;20061;-74
2023/01/14 00:43:41;;;;;;;16.73;6.60;;;4.80;99.90;;;;;;5008345;28;20157;-74
2023/01/14 00:46:12;;;;;;;14.73;5.65;;;4.80;99.90;;;;;;5003773;28;20095;-75
2023/01/14 00:48:39;;;;;;;18.38;5.63;;;5.00;99.90;;;;;;5012074;28;20041;-74
2023/01/14 00:51:07;;;;;;;20.38;7.60;;;4.90;99.90;;;;;;5002638;28;20044;-75
2023/01/14 00:53:36;;;;;;;19.63;7.28;;;5.00;99.90;;;;;;5027054;28;20045;-74
2023/01/14 00:56:03;;;;;;;10.45;4.85;;;4.90;99.90;;;;;;4999189;28;20041;-74
2023/01/14 00:58:30;;;;;;;13.85;3.65;;;4.90;99.90;;;;;;5011874;28;20279;-75
2023/01/14 01:00:57;;;;;;;9.13;3.65;;;4.90;99.90;;;;;;5007445;28;20075;-75
2023/01/14 01:03:24;;;;;;;9.20;4.38;;;4.90;99.90;;;;;;5005337;28;20049;-74
2023/01/14 01:05:51;;;;;;;10.13;4.60;;;4.90;99.90;;;;;;5003448;28;20033;-74
2023/01/14 01:08:19;;;;;;;8.57;3.97;;;5.00;99.90;;;;;;4992550;28;20063;-74
2023/01/14 01:10:48;;;;;;;10.25;4.15;;;5.00;99.90;;;;;;4983340;28;20052;-74
2023/01/14 01:13:15;;;;;;;12.38;5.40;;;4.90;99.90;;;;;;5004347;28;20359;-74
2023/01/14 01:15:42;;;;;;;11.82;5.78;;;4.90;99.90;;;;;;5000735;28;20583;-74
2023/01/14 01:18:11;;;;;;;10.57;6.55;;;4.90;99.90;;;;;;5012810;28;20050;-74
2023/01/14 01:20:38;;;;;;;15.48;7.15;;;4.80;99.90;;;;;;5008487;28;20749;-74
2023/01/14 01:23:08;;;;;;;14.00;6.50;;;4.90;99.90;;;;;;5007685;28;20558;-74
2023/01/14 01:25:35;;;;;;;9.80;7.15;;;4.90;99.90;;;;;;5007696;28;20115;-73
2023/01/14 01:28:03;;;;;;;14.15;8.25;;;4.90;99.90;;;;;;4996635;28;20262;-74
2023/01/14 01:30:30;;;;;;;17.02;10.05;;;5.00;99.90;;;;;;4995821;28;20411;-74
2023/01/14 01:32:57;;;;;;;13.70;8.40;;;5.00;99.90;;;;;;5009876;28;20057;-74
2023/01/14 01:35:24;;;;;;;17.85;7.72;;;5.00;99.90;;;;;;5002170;28;20046;-74
2023/01/14 01:37:51;;;;;;;14.02;7.80;;;5.10;99.90;;;;;;5012981;28;20073;-74
2023/01/14 01:40:19;;;;;;;15.77;9.15;;;5.00;99.90;;;;;;4985335;28;20176;-74
2023/01/14 01:42:54;;;;;;;31.23;12.98;;;5.10;99.90;;;;;;4993797;28;20045;-74
2023/01/14 01:45:31;;;;;;;23.98;12.77;;;5.10;99.90;;;;;;4986957;28;20053;-74
2023/01/14 01:48:10;;;;;;;22.73;12.68;;;5.10;99.90;;;;;;5013296;28;20048;-74
2023/01/14 01:50:37;;;;;;;34.65;15.55;;;5.10;99.90;;;;;;5012608;28;20491;-73
2023/01/14 01:53:06;;;;;;;34.97;14.85;;;5.20;99.90;;;;;;5014461;28;20053;-74
2023/01/14 01:55:37;;;;;;;36.10;15.38;;;5.20;99.90;;;;;;5008798;28;20167;-73
2023/01/14 01:58:06;;;;;;;26.38;12.98;;;5.20;99.90;;;;;;5012511;28;20045;-73
2023/01/14 02:00:32;;;;;;;32.95;15.18;;;5.20;99.90;;;;;;4994459;28;20037;-73
2023/01/14 02:03:04;;;;;;;41.33;15.18;;;5.20;99.90;;;;;;5007399;28;20052;-74
2023/01/14 02:05:31;;;;;;;30.48;11.23;;;5.20;99.90;;;;;;5007110;28;20050;-73
2023/01/14 02:08:01;;;;;;;36.85;11.93;;;5.30;99.90;;;;;;4999109;28;20175;-74
2023/01/14 02:10:52;;;;;;;25.75;10.77;;;5.30;99.90;;;;;;5006951;28;20057;-74
2023/01/14 02:13:47;;;;;;;43.00;11.95;;;5.30;99.90;;;;;;4982784;28;20108;-74
2023/01/14 02:16:24;;;;;;;41.88;10.75;;;5.40;99.90;;;;;;5006013;28;20049;-74
2023/01/14 02:19:17;;;;;;;33.78;11.15;;;5.40;99.90;;;;;;5003479;28;20042;-74
2023/01/14 02:22:12;;;;;;;34.63;10.77;;;5.40;99.90;;;;;;5007334;28;20049;-73
2023/01/14 02:25:09;;;;;;;32.22;9.85;;;5.50;99.90;;;;;;5012261;28;20108;-73
2023/01/14 02:27:44;;;;;;;36.08;10.70;;;5.50;99.90;;;;;;4995238;28;20411;-73
2023/01/14 02:30:38;;;;;;;42.95;9.75;;;5.50;99.90;;;;;;4992968;28;20053;-73
2023/01/14 02:33:28;;;;;;;28.40;9.18;;;5.50;99.90;;;;;;4985599;28;20050;-74
2023/01/14 02:36:28;;;;;;;37.83;9.40;;;5.60;99.90;;;;;;5000216;28;20030;-73
2023/01/14 02:39:01;;;;;;;23.52;7.97;;;5.60;99.90;;;;;;4992710;28;20265;-73
2023/01/14 02:44:31;;;;;;;25.33;8.38;;;5.60;99.90;;;;;;4991831;28;20053;-73
2023/01/14 02:47:07;;;;;;;34.95;10.15;;;5.70;99.90;;;;;;4991014;28;20104;-73
2023/01/14 02:49:40;;;;;;;32.28;9.23;;;5.80;99.90;;;;;;4993365;28;20411;-73
2023/01/14 02:52:07;;;;;;;35.80;9.15;;;5.80;99.90;;;;;;5013933;28;20049;-73
2023/01/14 02:54:35;;;;;;;33.10;9.77;;;5.80;99.90;;;;;;4986668;28;20488;-73
2023/01/14 02:57:15;;;;;;;30.85;10.75;;;5.90;99.90;;;;;;5014912;28;20052;-73
2023/01/14 02:59:56;;;;;;;31.13;9.05;;;5.80;99.90;;;;;;4998845;28;20034;-73
2023/01/14 03:02:43;;;;;;;25.70;7.88;;;5.90;99.90;;;;;;4973785;28;20041;-74
2023/01/14 03:05:33;;;;;;;29.27;8.40;;;5.90;99.90;;;;;;4994375;28;20639;-73
2023/01/14 03:08:17;;;;;;;28.92;9.50;;;5.90;99.90;;;;;;4989615;28;20517;-73
2023/01/14 03:11:04;;;;;;;36.00;9.10;;;5.90;99.90;;;;;;4994086;28;20041;-73
2023/01/14 03:13:46;;;;;;;33.03;8.57;;;5.90;99.90;;;;;;4993081;28;20045;-73
2023/01/14 03:16:41;;;;;;;19.98;7.15;;;5.90;99.90;;;;;;4988703;28;20045;-74
2023/01/14 03:19:18;;;;;;;29.02;8.43;;;5.90;99.90;;;;;;5007575;28;20116;-74
2023/01/14 03:21:52;;;;;;;34.63;7.05;;;5.90;99.90;;;;;;4998708;28;20048;-74
2023/01/14 03:24:28;;;;;;;27.92;8.07;;;5.70;99.90;;;;;;4994654;28;20057;-74
2023/01/14 03:27:00;;;;;;;26.00;7.00;;;5.70;99.90;;;;;;5009768;28;20037;-73
2023/01/14 03:29:34;;;;;;;37.60;8.77;;;5.70;99.90;;;;;;5043265;22;20432;-75
2023/01/14 03:32:05;;;;;;;;;;;5.70;99.90;;;;;;5020865;28;20044;-74
2023/01/14 03:34:40;;;;;;;28.95;7.47;;;5.70;99.90;;;;;;5020370;28;20275;-74
2023/01/14 03:37:11;;;;;;;27.13;6.57;;;5.80;99.90;;;;;;5019893;28;20045;-75
2023/01/14 03:39:42;;;;;;;40.63;8.75;;;5.80;99.90;;;;;;5021616;28;20056;-75
2023/01/14 03:42:18;;;;;;;23.92;8.60;;;5.80;99.90;;;;;;4998039;28;20510;-74
2023/01/14 03:44:59;;;;;;;32.80;8.65;;;5.80;99.90;;;;;;4999679;28;20084;-75
2023/01/14 03:47:29;;;;;;;35.10;9.25;;;5.90;99.90;;;;;;5014594;28;20046;-74
2023/01/14 03:49:59;;;;;;;26.27;9.00;;;5.90;99.90;;;;;;5019217;28;20049;-74
2023/01/14 03:52:59;;;;;;;35.33;9.88;;;5.90;99.90;;;;;;4996902;28;20042;-74
2023/01/14 03:55:35;;;;;;;32.42;9.77;;;5.90;99.90;;;;;;4993877;28;20439;-74
2023/01/14 03:58:17;;;;;;;30.00;9.05;;;5.90;99.90;;;;;;5014876;28;20401;-74
2023/01/14 04:00:55;;;;;;;28.88;9.50;;;5.90;99.90;;;;;;5016418;28;20037;-74
2023/01/14 04:03:26;;;;;;;26.67;10.30;;;5.90;99.90;;;;;;4996798;28;20491;-74
2023/01/14 04:05:53;;;;;;;36.63;10.07;;;5.90;99.90;;;;;;5005812;28;20049;-74
2023/01/14 04:08:22;;;;;;;23.13;10.13;;;5.90;99.90;;;;;;5017401;28;20046;-76
2023/01/14 04:10:49;;;;;;;30.70;11.57;;;5.90;99.90;;;;;;5014436;28;20044;-74
2023/01/14 04:16:03;;;;;;;25.55;11.55;;;6.00;99.90;;;;;;5000309;28;20132;-74
2023/01/14 04:18:29;;;;;;;19.30;10.65;;;5.90;99.90;;;;;;4997127;28;20396;-73
2023/01/14 04:20:56;;;;;;;44.88;12.52;;;5.90;99.90;;;;;;5000533;28;20051;-74
2023/01/14 04:23:23;;;;;;;29.30;11.80;;;5.90;99.90;;;;;;5004342;28;20051;-73
2023/01/14 04:25:58;;;;;;;31.20;12.05;;;5.90;99.90;;;;;;5001641;28;20046;-73
2023/01/14 04:28:25;;;;;;;21.35;11.40;;;5.90;99.90;;;;;;5014193;28;20049;-74
2023/01/14 04:30:52;;;;;;;39.25;12.60;;;5.80;99.90;;;;;;5005069;28;20064;-74
2023/01/14 04:33:20;;;;;;;26.05;11.20;;;5.70;99.90;;;;;;4998893;28;20547;-74
2023/01/14 04:35:50;;;;;;;23.80;10.55;;;5.60;99.90;;;;;;4992173;28;20041;-74
2023/01/14 04:38:20;;;;;;;25.67;9.80;;;5.60;99.90;;;;;;5000804;28;20136;-74
2023/01/14 04:40:57;;;;;;;28.38;10.40;;;5.50;99.90;;;;;;4999810;28;20041;-74
2023/01/14 04:43:24;;;;;;;24.17;9.32;;;5.50;99.90;;;;;;4995278;28;20444;-74
2023/01/14 04:45:52;;;;;;;25.88;9.65;;;5.40;99.90;;;;;;5016317;28;20590;-74
2023/01/14 04:48:20;;;;;;;37.78;10.73;;;5.40;99.90;;;;;;4997002;28;20052;-74
2023/01/14 04:50:50;;;;;;;25.13;10.93;;;5.40;99.90;;;;;;4994087;28;20040;-74
2023/01/14 04:53:20;;;;;;;27.20;10.05;;;5.30;99.90;;;;;;5015917;28;20045;-73
2023/01/14 04:55:50;;;;;;;27.23;9.63;;;5.30;99.90;;;;;;5010859;28;20037;-73
2023/01/14 04:58:18;;;;;;;35.45;10.57;;;5.30;99.90;;;;;;5016407;28;20048;-74
2023/01/14 05:00:45;;;;;;;21.23;8.93;;;5.20;99.90;;;;;;4988509;28;20129;-74
2023/01/14 05:03:14;;;;;;;26.75;9.88;;;5.20;99.90;;;;;;5000350;28;20128;-73
2023/01/14 05:05:41;;;;;;;23.73;10.20;;;5.20;99.90;;;;;;5009356;28;20045;-74
2023/01/14 05:08:09;;;;;;;21.38;10.13;;;5.30;99.90;;;;;;5016674;28;20045;-74
2023/01/14 05:10:36;;;;;;;25.85;9.63;;;5.30;99.90;;;;;;5017898;28;20033;-73
2023/01/14 05:13:05;;;;;;;28.10;10.38;;;5.30;99.90;;;;;;4999458;28;20136;-73
2023/01/14 05:15:37;;;;;;;30.92;9.45;;;5.30;99.90;;;;;;4995331;28;20037;-73
2023/01/14 05:18:05;;;;;;;28.00;11.60;;;5.30;99.90;;;;;;5008359;28;20454;-73
2023/01/14 05:20:32;;;;;;;22.35;9.98;;;5.30;99.90;;;;;;4986282;28;20095;-73
2023/01/14 05:23:05;;;;;;;22.63;9.38;;;5.40;99.90;;;;;;5009996;28;20535;-73
2023/01/14 05:25:34;;;;;;;31.42;11.77;;;5.40;99.90;;;;;;5019535;28;20064;-73
2023/01/14 05:28:03;;;;;;;33.97;10.63;;;5.40;99.90;;;;;;5007632;28;20598;-73
2023/01/14 05:30:31;;;;;;;25.90;9.32;;;5.40;99.90;;;;;;5018740;28;20041;-74
2023/01/14 05:32:58;;;;;;;39.17;11.23;;;5.40;99.90;;;;;;5013990;28;20042;-74
2023/01/14 05:35:25;;;;;;;29.55;9.95;;;5.40;99.90;;;;;;5022919;28;20038;-73
2023/01/14 05:37:52;;;;;;;25.55;11.07;;;5.30;99.90;;;;;;5031558;28;20041;-73
2023/01/14 05:40:18;;;;;;;30.48;11.77;;;5.40;99.90;;;;;;5020785;28;20046;-74
2023/01/14 05:45:49;;;;;;;;;;;5.40;99.90;;;;;;5025326;28;20037;-73
2023/01/14 05:48:21;;;;;;;29.48;11.18;;;5.30;99.90;;;;;;5031944;28;19924;-72
2023/01/14 05:50:53;;;;;;;22.63;11.93;;;5.20;99.90;;;;;;4991240;28;20075;-74
2023/01/14 05:53:21;;;;;;;23.48;11.48;;;5.20;99.90;;;;;;5006728;28;20044;-75
2023/01/14 05:55:48;;;;;;;30.73;12.23;;;5.10;99.90;;;;;;5013145;28;20056;-73
2023/01/14 05:58:15;;;;;;;31.08;11.63;;;5.10;99.90;;;;;;5022689;28;20495;-73
2023/01/14 06:06:22;;;;;;;25.35;11.32;;;5.00;99.90;;;;;;5011930;28;20171;-72
2023/01/14 06:08:51;;;;;;;35.03;10.95;;;5.10;99.90;;;;;;5007668;28;20095;-72
2023/01/14 06:11:21;;;;;;;23.45;11.55;;;5.10;99.90;;;;;;5028023;28;20041;-73
2023/01/14 06:13:54;;;;;;;27.45;12.43;;;5.10;99.90;;;;;;5010020;28;20136;-73
2023/01/14 06:16:21;;;;;;;24.30;11.93;;;5.10;99.90;;;;;;5023639;28;20211;-73
2023/01/14 06:18:48;;;;;;;27.00;12.25;;;5.10;99.90;;;;;;5006331;28;20454;-73
2023/01/14 06:21:17;;;;;;;25.40;10.77;;;5.10;99.90;;;;;;5029076;28;20403;-73
2023/01/14 06:23:45;;;;;;;21.33;10.93;;;5.00;99.90;;;;;;5014822;28;20507;-73
2023/01/14 06:26:15;;;;;;;30.35;10.65;;;5.00;99.90;;;;;;5004301;28;20045;-74
2023/01/14 06:28:42;;;;;;;25.55;11.23;;;5.00;99.90;;;;;;5005312;28;20435;-73
2023/01/14 06:31:11;;;;;;;25.38;9.77;;;4.90;99.90;;;;;;5025253;28;20045;-73
2023/01/14 06:33:38;;;;;;;23.88;10.13;;;4.90;99.90;;;;;;5029826;28;20059;-73
2023/01/14 06:36:07;;;;;;;33.85;10.88;;;5.00;99.90;;;;;;5028176;28;20183;-73
2023/01/14 06:38:34;;;;;;;30.17;10.80;;;5.00;99.90;;;;;;5017983;28;20037;-76
2023/01/14 06:41:02;;;;;;;22.75;11.30;;;5.00;99.90;;;;;;5026563;28;20039;-74
2023/01/14 06:43:29;;;;;;;29.00;10.45;;;4.90;99.90;;;;;;5027772;28;20041;-74
2023/01/14 06:45:56;;;;;;;29.92;11.27;;;5.00;99.90;;;;;;5013676;28;20039;-73
2023/01/14 06:48:24;;;;;;;22.40;11.70;;;5.00;99.90;;;;;;5030352;28;20048;-73
2023/01/14 06:50:52;;;;;;;20.80;11.60;;;5.00;99.90;;;;;;5016115;28;20047;-74
2023/01/14 06:53:22;;;;;;;18.70;10.60;;;5.00;99.90;;;;;;5029802;28;20041;-73
2023/01/14 06:55:49;;;;;;;28.30;12.13;;;5.00;99.90;;;;;;5018848;28;20037;-73
2023/01/14 06:58:15;;;;;;;22.95;11.02;;;4.90;99.90;;;;;;5022892;28;20056;-73
2023/01/14 07:00:42;;;;;;;27.15;12.57;;;4.90;99.90;;;;;;5021443;28;20539;-74
2023/01/14 07:03:09;;;;;;;23.02;11.00;;;4.90;99.90;;;;;;5016020;28;20419;-73
2023/01/14 07:05:36;;;;;;;25.15;11.45;;;4.90;99.90;;;;;;5021738;28;20133;-73
2023/01/14 07:08:02;;;;;;;34.85;11.65;;;5.00;99.90;;;;;;5018993;28;20602;-73
2023/01/14 07:10:29;;;;;;;24.67;11.52;;;5.00;99.90;;;;;;5026726;28;20052;-73
2023/01/14 07:12:56;;;;;;;22.80;12.35;;;5.00;99.90;;;;;;5027805;28;20407;-73
2023/01/14 07:15:22;;;;;;;31.77;13.23;;;5.00;99.90;;;;;;5021052;28;20045;-73
2023/01/14 07:17:49;;;;;;;26.63;13.27;;;5.00;99.90;;;;;;5033166;28;20102;-72
2023/01/14 07:20:17;;;;;;;22.05;13.02;;;5.00;99.90;;;;;;5022660;28;20061;-72
2023/01/14 07:22:44;;;;;;;21.13;12.43;;;5.00;99.90;;;;;;5029332;28;20412;-73
2023/01/14 07:25:11;;;;;;;22.25;13.65;;;5.10;99.90;;;;;;5026095;28;20052;-73
2023/01/14 07:27:38;;;;;;;48.13;15.32;;;5.10;99.90;;;;;;5019579;28;20083;-72
2023/01/14 07:30:05;;;;;;;19.65;12.23;;;5.00;99.90;;;;;;5029739;28;20044;-73
2023/01/14 07:32:34;;;;;;;24.38;12.48;;;5.00;99.90;;;;;;5015040;28;20144;-72
2023/01/14 07:35:01;;;;;;;21.40;13.35;;;5.00;99.90;;;;;;5023084;28;20042;-72
2023/01/14 07:37:28;;;;;;;35.78;15.88;;;5.00;99.90;;;;;;5020165;28;20057;-74
2023/01/14 07:39:54;;;;;;;28.75;13.48;;;5.00;99.90;;;;;;5000214;28;20047;-73
2023/01/14 07:42:21;;;;;;;18.42;11.85;;;4.90;99.90;;;;;;5026073;28;20139;-73
2023/01/14 07:44:48;;;;;;;22.90;11.77;;;4.90;99.90;;;;;;5002287;28;20316;-73
2023/01/14 07:47:17;;;;;;;24.20;13.40;;;4.90;99.90;;;;;;5025302;28;20105;-73
2023/01/14 07:49:44;;;;;;;25.50;19.42;;;4.80;99.90;;;;;;5005476;28;20113;-73
2023/01/14 07:52:12;;;;;;;31.35;19.33;;;4.80;99.90;;;;;;5013742;28;20033;-73
2023/01/14 07:54:41;;;;;;;19.38;17.42;;;4.70;99.90;;;;;;5013597;28;20219;-73
2023/01/14 07:57:09;;;;;;;23.33;17.35;;;4.80;99.90;;;;;;5008393;28;20613;-73
2023/01/14 07:59:37;;;;;;;21.27;17.23;;;4.70;99.90;;;;;;4989486;28;20045;-74
2023/01/14 08:02:05;;;;;;;29.83;16.65;;;4.70;99.90;;;;;;5001688;28;20411;-73
2023/01/14 08:04:32;;;;;;;27.40;16.75;;;4.70;99.90;;;;;;4998990;28;20061;-73
2023/01/14 08:06:59;;;;;;;25.73;15.85;;;4.70;99.90;;;;;;5007393;28;20068;-73
2023/01/14 08:09:26;;;;;;;29.55;16.70;;;4.70;99.90;;;;;;5014818;28;20132;-73
2023/01/14 08:11:53;;;;;;;36.30;16.15;;;4.70;99.90;;;;;;5015490;28;20427;-73
2023/01/14 08:14:20;;;;;;;24.23;15.43;;;4.70;99.90;;;;;;5019449;28;20049;-74
2023/01/14 08:16:46;;;;;;;23.65;16.50;;;4.70;99.90;;;;;;5008518;28;20052;-73
2023/01/14 08:19:16;;;;;;;22.88;14.70;;;4.80;99.90;;;;;;5002103;28;20376;-73
2023/01/14 08:21:44;;;;;;;20.17;15.05;;;4.80;99.90;;;;;;5023293;28;20056;-73
2023/01/14 08:24:10;;;;;;;26.40;16.85;;;4.90;99.90;;;;;;5025243;28;20450;-73
2023/01/14 08:26:37;;;;;;;20.65;15.55;;;4.90;99.90;;;;;;5000781;28;20043;-73
2023/01/14 08:29:04;;;;;;;25.40;16.20;;;5.00;99.90;;;;;;5009123;28;20038;-73
2023/01/14 08:31:40;;;;;;;36.28;16.48;;;5.00;99.90;;;;;;5012790;28;20067;-73
2023/01/14 08:34:07;;;;;;;30.17;15.57;;;5.00;99.90;;;;;;5017496;28;20495;-73
2023/01/14 08:36:34;;;;;;;37.47;17.15;;;5.10;99.90;;;;;;5011838;28;20120;-72
2023/01/14 08:39:01;;;;;;;25.65;17.23;;;5.20;99.90;;;;;;5002431;28;20055;-73
2023/01/14 08:41:27;;;;;;;20.73;17.55;;;5.20;99.90;;;;;;5017607;28;20057;-73
2023/01/14 08:43:56;;;;;;;28.30;15.13;;;5.20;99.90;;;;;;5020131;28;20369;-73
2023/01/14 08:46:23;;;;;;;27.95;17.63;;;5.20;99.90;;;;;;5013246;28;20140;-72
2023/01/14 08:48:49;;;;;;;26.98;18.25;;;5.30;99.90;;;;;;5024143;28;20499;-72
2023/01/14 08:51:16;;;;;;;27.20;16.52;;;5.20;99.90;;;;;;5017491;28;20049;-72
2023/01/14 08:53:43;;;;;;;26.85;15.93;;;5.30;99.90;;;;;;5017130;28;20233;-72
2023/01/14 08:56:15;;;;;;;24.08;16.48;;;5.30;99.90;;;;;;5016962;28;20588;-73
2023/01/14 08:58:43;;;;;;;29.30;16.55;;;5.30;99.90;;;;;;5014864;28;20045;-73
2023/01/14 09:01:10;;;;;;;23.05;16.40;;;5.30;99.90;;;;;;5016040;28;20503;-73
2023/01/14 09:03:37;;;;;;;23.73;15.07;;;5.30;99.90;;;;;;5021954;28;20140;-72
2023/01/14 09:06:09;;;;;;;26.15;17.50;;;5.30;99.90;;;;;;5023909;28;20049;-72
2023/01/14 09:17:12;;;;;;;22.67;15.45;;;5.40;99.90;;;;;;5011498;28;20140;-73
2023/01/14 09:19:45;;;;;;;22.55;16.77;;;5.50;99.90;;;;;;5017953;28;20487;-72
2023/01/14 09:22:15;;;;;;;24.40;16.48;;;5.50;99.90;;;;;;5019065;28;20041;-72
2023/01/14 09:24:42;;;;;;;26.25;16.27;;;5.50;99.90;;;;;;5013416;28;20042;-74
2023/01/14 09:27:09;;;;;;;22.98;17.35;;;5.50;99.90;;;;;;5014959;28;20048;-72
2023/01/14 09:29:35;;;;;;;28.08;16.67;;;5.50;99.90;;;;;;5001621;28;20049;-71
2023/01/14 09:32:02;;;;;;;21.58;13.35;;;5.50;99.90;;;;;;4985654;28;20099;-72
2023/01/14 09:34:29;;;;;;;16.30;12.85;;;5.50;99.90;;;;;;4976476;28;20030;-73
2023/01/14 09:36:56;;;;;;;21.15;11.82;;;5.50;99.90;;;;;;4979252;28;20081;-71
2023/01/14 09:39:22;;;;;;;23.73;10.88;;;5.50;99.90;;;;;;4958973;28;20043;-72
2023/01/14 09:41:55;;;;;;;26.10;10.35;;;5.40;99.90;;;;;;4994592;28;20038;-74
2023/01/14 09:44:24;;;;;;;28.23;9.13;;;5.40;99.90;;;;;;4975541;28;20133;-71
2023/01/14 09:46:51;;;;;;;26.13;9.23;;;5.30;99.90;;;;;;4999455;28;20034;-71
2023/01/14 09:49:22;;;;;;;18.65;7.43;;;5.30;99.90;;;;;;4979703;28;20055;-72
2023/01/14 09:52:23;;;;;;;21.83;7.55;;;5.20;99.90;;;;;;4994485;28;20048;-73
2023/01/14 09:55:16;;;;;;;20.70;7.07;;;5.20;99.90;;;;;;4948458;28;20045;-72
2023/01/14 09:57:55;;;;;;;19.85;6.07;;;5.20;99.90;;;;;;4956517;28;20045;-71
2023/01/14 10:00:33;;;;;;;18.40;6.57;;;5.20;99.90;;;;;;4974853;28;20243;-72
2023/01/14 10:03:16;;;;;;;19.77;6.55;;;5.20;99.90;;;;;;4975485;28;20053;-72
2023/01/14 10:05:55;;;;;;;37.67;8.45;;;5.10;99.90;;;;;;4971783;28;20050;-72
2023/01/14 10:08:24;;;;;;;23.00;8.85;;;5.10;99.90;;;;;;4976375;28;20528;-71
2023/01/14 10:10:51;;;;;;;18.42;6.47;;;5.10;99.90;;;;;;4998701;28;20428;-72
2023/01/14 10:13:23;;;;;;;26.48;8.05;;;5.10;99.90;;;;;;4981844;28;20355;-72
2023/01/14 10:15:55;;;;;;;30.83;7.15;;;5.10;99.90;;;;;;5000819;28;20411;-72
2023/01/14 10:18:36;;;;;;;16.45;5.97;;;5.20;99.90;;;;;;4983689;28;20064;-72
2023/01/14 10:21:12;;;;;;;27.55;5.93;;;5.10;99.90;;;;;;4995256;28;20129;-72
2023/01/14 10:23:40;;;;;;;21.90;4.95;;;5.10;99.90;;;;;;5000310;28;20045;-72
2023/01/14 10:26:18;;;;;;;26.45;6.18;;;5.10;99.90;;;;;;5001159;28;20176;-72
2023/01/14 10:28:49;;;;;;;23.38;5.75;;;5.20;99.90;;;;;;5001434;28;20041;-72
2023/01/14 10:31:26;;;;;;;16.55;6.35;;;5.20;99.90;;;;;;4995965;28;20053;-71
2023/01/14 10:33:53;;;;;;;14.13;5.00;;;5.20;99.90;;;;;;5000776;28;20042;-72
2023/01/14 10:36:23;;;;;;;21.27;5.72;;;5.20;99.90;;;;;;4996676;28;20065;-72
2023/01/14 10:38:51;;;;;;;14.95;6.25;;;5.30;99.90;;;;;;4977751;28;20414;-72
2023/01/14 10:41:48;;;;;;;11.18;5.00;;;5.30;99.90;;;;;;4980137;28;20129;-72
2023/01/14 10:44:05;;;;;;;19.73;5.88;;;5.30;99.90;;;;;;4980053;28;20241;-72
2023/01/14 10:46:31;;;;;;;20.88;5.93;;;5.40;99.90;;;;;;4980932;28;20444;-71
2023/01/14 10:49:15;;;;;;;26.88;9.63;;;5.40;99.90;;;;;;4980048;28;20111;-72
2023/01/14 10:51:49;;;;;;;17.75;5.82;;;5.40;99.90;;;;;;4998451;28;20061;-71
2023/01/14 10:54:19;;;;;;;25.35;12.05;;;5.50;99.90;;;;;;4995971;28;20068;-72
2023/01/14 10:56:53;;;;;;;27.63;8.00;;;5.50;99.90;;;;;;4977683;28;20034;-72
2023/01/14 10:59:48;;;;;;;24.95;7.93;;;5.50;99.90;;;;;;4982298;28;20058;-71
2023/01/14 11:02:44;;;;;;;21.63;7.38;;;5.50;99.90;;;;;;4974735;28;20720;-71
2023/01/14 11:05:31;;;;;;;;;;;5.50;99.90;;;;;;4994101;28;20061;-72
2023/01/14 11:08:01;;;;;;;23.77;7.45;;;5.50;99.90;;;;;;4994564;28;20470;-71
2023/01/14 11:10:30;;;;;;;21.15;8.18;;;5.50;99.90;;;;;;5004226;28;20656;-71
2023/01/14 11:13:23;;;;;;;17.27;8.13;;;5.50;99.90;;;;;;4995089;28;20037;-72
2023/01/14 11:15:50;;;;;;;16.83;7.38;;;5.50;99.90;;;;;;4995338;28;20048;-73
2023/01/14 11:18:33;;;;;;;29.85;9.55;;;5.50;99.90;;;;;;4994599;28;20320;-72
2023/01/14 11:21:15;;;;;;;14.88;6.72;;;5.50;99.90;;;;;;4999571;28;20052;-73
2023/01/14 11:23:44;;;;;;;22.48;9.25;;;5.50;99.90;;;;;;4977173;28;20591;-74
2023/01/14 11:26:22;;;;;;;33.50;10.73;;;5.50;99.90;;;;;;4981863;28;20044;-73
2023/01/14 11:28:50;;;;;;;30.45;9.13;;;5.50;99.90;;;;;;4995837;28;20038;-73
2023/01/14 11:31:33;;;;;;;15.02;6.78;;;5.50;99.90;;;;;;4993975;28;20091;-72
2023/01/14 11:34:00;;;;;;;24.20;7.18;;;5.50;99.90;;;;;;5000683;28;20343;-71
2023/01/14 11:36:29;;;;;;;24.92;8.85;;;5.50;99.90;;;;;;4959273;28;20038;-72
2023/01/14 11:38:58;;;;;;;20.08;7.68;;;5.60;99.90;;;;;;4979921;28;20594;-71
2023/01/14 11:41:34;;;;;;;21.98;8.18;;;5.60;99.90;;;;;;4995059;28;20467;-72
2023/01/14 11:44:02;;;;;;;24.55;7.00;;;5.50;99.90;;;;;;4961025;28;20316;-72
2023/01/14 11:46:29;;;;;;;18.17;6.75;;;5.60;99.90;;;;;;4975410;28;20056;-72
2023/01/14 11:48:59;;;;;;;24.88;8.50;;;5.60;99.90;;;;;;4978734;28;20325;-72
2023/01/14 11:51:27;;;;;;;15.05;7.18;;;5.60;99.90;;;;;;4994073;28;20037;-72
2023/01/14 11:53:55;;;;;;;18.02;7.30;;;5.60;99.90;;;;;;4978176;28;20045;-73
2023/01/14 11:56:40;;;;;;;17.35;7.45;;;5.60;99.90;;;;;;4974914;28;20053;-71
2023/01/14 11:59:28;;;;;;;15.18;7.15;;;5.60;99.90;;;;;;4995589;28;20042;-72
2023/01/14 12:01:57;;;;;;;14.68;6.63;;;5.60;99.90;;;;;;4976425;28;20407;-72
2023/01/14 12:04:32;;;;;;;26.17;7.22;;;5.60;99.90;;;;;;4995004;28;20295;-72
2023/01/14 12:07:00;;;;;;;22.75;7.35;;;5.60;99.90;;;;;;4997343;28;20289;-73
2023/01/14 12:09:43;;;;;;;18.08;6.88;;;5.60;99.90;;;;;;4992860;28;20096;-73
2023/01/14 12:12:17;;;;;;;18.40;7.18;;;5.60;99.90;;;;;;4996155;28;20060;-72
2023/01/14 12:17:50;;;;;;;23.75;8.65;;;5.70;99.90;;;;;;4996095;28;20464;-73
2023/01/14 12:20:21;;;;;;;16.48;5.70;;;5.70;99.90;;;;;;4995692;28;20111;-72
2023/01/14 12:23:15;;;;;;;18.23;5.75;;;5.70;99.90;;;;;;4993174;28;20040;-72
2023/01/14 12:25:48;;;;;;;30.30;8.25;;;5.70;99.90;;;;;;4972855;28;20049;-72
2023/01/14 12:28:33;;;;;;;13.15;5.80;;;5.80;99.90;;;;;;4995614;28;20432;-71
2023/01/14 12:31:11;;;;;;;18.27;6.88;;;5.80;99.90;;;;;;5015600;28;20038;-73
2023/01/14 12:33:49;;;;;;;16.92;6.20;;;5.80;99.90;;;;;;4998066;28;20507;-73
2023/01/14 12:36:20;;;;;;;18.48;6.47;;;5.90;99.90;;;;;;5011344;28;20343;-73
2023/01/14 12:47:43;;;;;;;10.75;5.72;;;5.90;99.90;;;;;;5013159;28;20340;-72
2023/01/14 12:50:13;;;;;;;8.48;4.60;;;5.90;99.90;;;;;;5020370;28;20040;-73
2023/01/14 12:52:47;;;;;;;11.02;4.75;;;6.00;99.90;;;;;;5018117;28;20120;-73
2023/01/14 12:55:38;;;;;;;9.67;5.13;;;6.00;99.90;;;;;;4997049;28;20041;-73
2023/01/14 12:58:14;;;;;;;14.40;4.53;;;6.00;99.90;;;;;;5014016;28;20310;-72
2023/01/14 13:00:41;;;;;;;6.97;4.78;;;6.00;99.90;;;;;;5015336;28;20045;-71
2023/01/14 13:03:20;;;;;;;7.22;4.72;;;6.10;99.90;;;;;;5000725;28;20502;-72
2023/01/14 13:05:47;;;;;;;9.07;4.93;;;6.10;99.90;;;;;;4998550;28;20044;-72
2023/01/14 13:08:23;;;;;;;13.75;5.85;;;6.20;99.90;;;;;;4990785;28;20050;-70
2023/01/14 13:11:11;;;;;;;11.93;5.10;;;6.20;99.90;;;;;;5017057;28;20042;-70
2023/01/14 13:13:41;;;;;;;9.38;4.60;;;6.20;99.90;;;;;;5020207;28;20045;-71
2023/01/14 13:16:43;;;;;;;15.32;5.30;;;6.20;99.90;;;;;;4985814;28;20188;-73
2023/01/14 13:19:28;;;;;;;10.00;5.82;;;6.30;99.90;;;;;;4954615;28;20552;-73
2023/01/14 13:22:04;;;;;;;7.72;5.28;;;6.30;99.90;;;;;;4995393;28;20092;-74
2023/01/14 13:25:10;;;;;;;12.05;5.88;;;6.30;99.90;;;;;;4996686;28;20136;-75
2023/01/14 13:27:39;;;;;;;8.10;3.35;;;6.30;99.90;;;;;;4953228;28;20046;-74
2023/01/14 13:30:17;;;;;;;10.15;4.35;;;6.40;99.90;;;;;;5017860;28;20411;-74
2023/01/14 13:32:59;;;;;;;7.60;3.85;;;6.40;99.90;;;;;;5014496;28;20068;-73
2023/01/14 13:35:32;;;;;;;6.50;4.43;;;6.40;99.90;;;;;;4997951;28;20049;-73
2023/01/14 13:38:01;;;;;;;4.28;2.90;;;6.40;99.90;;;;;;5017698;28;20117;-73
2023/01/14 13:40:36;;;;;;;4.32;3.33;;;6.40;99.90;;;;;;4991585;28;20392;-75
2023/01/14 13:43:06;;;;;;;6.00;3.88;;;6.40;99.90;;;;;;5003094;28;20037;-73